Flight Track Log - Related Links

Times and Time Zones

All times are in EDT time to prevent confusion due to time zone crossing. See the AVN11 flight status page for this flight to view local times or setup timezone preferences in your user account.

Time Position Orientation Groundspeed Altitude Reporting Facility
EDT Latitude Longitude Course Direction KTS MPH feet Rate Location/Type
Wed 05:22:59 AM -33.9640 151.1920 360° North 110 127  Level FlightAware ADS-B
Wed 05:23:22 AM -33.9528 151.1870 340° North 165 190 300 1,435 Climbing FlightAware ADS-B
Wed 05:23:45 AM -33.9304 151.1866 359° North 173 199 1,100 2,000 Climbing FlightAware ADS-B
Wed 05:23:55 AM -33.9265 151.1889 26° Northeast 183 211 1,400 1,429 Climbing FlightAware ADS-B
Wed 05:24:06 AM -33.9195 151.1987 49° Northeast 191 220 1,600 947 Climbing FlightAware ADS-B
Wed 05:24:14 AM -33.9177 151.2058 73° East 199 229 1,700 1,000 Climbing FlightAware ADS-B
Wed 05:24:36 AM -33.9225 151.2301 103° East 213 245 2,100 1,227 Climbing FlightAware ADS-B
Wed 05:24:58 AM -33.9329 151.2591 113° Southeast 238 274 2,600 1,814 Climbing FlightAware ADS-B
Wed 05:25:19 AM -33.9370 151.2872 100° East 243 280 3,400 1,800 Climbing FlightAware ADS-B
Wed 05:25:38 AM -33.9368 151.3033 89° East 262 302 3,800 1,250 Climbing FlightAware ADS-B
Wed 05:26:07 AM -33.9345 151.3606 87° East 296 341 4,400 1,200 Climbing FlightAware ADS-B
Wed 05:26:23 AM -33.9332 151.3894 87° East 318 366 4,700 1,667 Climbing FlightAware ADS-B
Wed 05:26:43 AM -33.9319 151.4242 87° East 325 374 5,400 2,053 Climbing FlightAware ADS-B
Wed 05:27:01 AM -33.9310 151.4489 88° East 330 380 6,000 2,294 Climbing FlightAware ADS-B
Wed 05:27:17 AM -33.9296 151.4874 87° East 335 386 6,700 2,800 Climbing FlightAware ADS-B
Wed 05:27:46 AM -33.9274 151.5417 87° East 340 391 8,100 2,455 Climbing FlightAware ADS-B
Wed 05:28:23 AM -33.9250 151.6050 87° East 345 397 9,400 2,308 Climbing FlightAware ADS-B
Wed 05:28:38 AM -33.9245 151.6226 88° East 352 405 10,100 2,609 Climbing FlightAware ADS-B
Wed 05:29:09 AM -33.9217 151.7033 88° East 362 417 11,400 2,667 Climbing FlightAware ADS-B
Wed 05:29:41 AM -33.9191 151.7673 88° East 358 412 12,900 2,800 Climbing Aus ATC (RADAR)
Wed 05:29:54 AM -33.9182 151.7920 88° East 369 425 13,500 2,791 Climbing FlightAware ADS-B
Wed 05:30:24 AM -33.9156 151.8572 88° East 371 427 14,900 2,875 Climbing Aus ATC (RADAR)
Wed 05:30:42 AM -33.9143 151.8859 88° East 380 437 15,800 2,357 Climbing FlightAware ADS-B
Wed 05:31:20 AM -33.9110 151.9690 87° East 393 452 17,100 2,217 Climbing FlightAware ADS-B
Wed 05:31:28 AM -33.9097 151.9934 86° East 400 460 17,500 2,372 Climbing FlightAware ADS-B
Wed 05:32:03 AM -33.9066 152.0682 87° East 412 474 18,800 2,231 Climbing FlightAware ADS-B
Wed 05:32:46 AM -33.9074 152.1703 87° East 406 467 20,400 2,226 Climbing Aus ATC (RADAR)
Wed 05:33:05 AM -33.9070 152.2120 87° East 425 489 21,100 2,082 Climbing FlightAware ADS-B
Wed 05:33:35 AM -33.9080 152.2830 91° East 431 496 22,100 2,066 Climbing FlightAware ADS-B
Wed 05:34:06 AM -33.9087 152.3611 91° East 425 489 23,200 2,057 Climbing Aus ATC (RADAR)
Wed 05:34:10 AM -33.9090 152.3690 91° East 438 504 23,300 1,886 Climbing FlightAware ADS-B
Wed 05:34:41 AM -33.9099 152.4471 91° East 431 496 24,300 1,837 Climbing Aus ATC (RADAR)
Wed 05:34:59 AM -33.9100 152.4860 91° East 447 514 24,800 2,000 Climbing FlightAware ADS-B
Wed 05:35:29 AM -33.9107 152.5677 91° East 444 511 25,900 2,057 Climbing Aus ATC (RADAR)
Wed 05:35:34 AM -33.9100 152.5720 91° East 450 518 26,000 1,886 Climbing FlightAware ADS-B
Wed 05:36:04 AM -33.9103 152.6551 91° East 446 513 27,000 1,667 Climbing Aus ATC (RADAR)
Wed 05:36:10 AM -33.9100 152.6630 91° East 455 524 27,000 1,000 Level FlightAware ADS-B
Wed 05:36:34 AM -33.9020 152.7230 81° East 475 547 27,500 1,082 Climbing FlightAware ADS-B
Wed 05:37:11 AM -33.8690 152.8210 68° East 505 581 28,100 1,043 Climbing FlightAware ADS-B
Wed 05:37:43 AM -33.8400 152.9040 67° East 514 592 28,700 1,075 Climbing FlightAware ADS-B
Wed 05:38:18 AM -33.8070 152.9990 67° East 522 601 29,300 1,091 Climbing FlightAware ADS-B
Wed 05:38:49 AM -33.7766 153.0862 67° East 522 601 29,900 1,029 Climbing Aus ATC (RADAR)
Wed 05:38:53 AM -33.7730 153.0940 67° East 531 611 29,900 769 Level FlightAware ADS-B
Wed 05:39:28 AM -33.7410 153.1870 68° East 540 621 30,400 930 Climbing FlightAware ADS-B
Wed 05:40:04 AM -33.7080 153.2820 67° East 546 628 31,000 1,099 Climbing FlightAware ADS-B
Wed 05:40:39 AM -33.6720 153.3820 67° East 549 632 31,700 1,200 Climbing FlightAware ADS-B
Wed 05:41:09 AM -33.6410 153.4710 67° East 552 635 32,300 1,180 Climbing FlightAware ADS-B
Wed 05:41:40 AM -33.6082 153.5636 67° East 535 616 32,900 1,029 Climbing Aus ATC (RADAR)
Wed 05:41:44 AM -33.6060 153.5690 67° East 557 641 32,900 857 Level FlightAware ADS-B
Wed 05:42:15 AM -33.5724 153.6633 67° East 541 623 33,400 1,000 Climbing Aus ATC (RADAR)
Wed 05:42:32 AM -33.5610 153.6960 67° East 560 644 33,700 1,241 Climbing FlightAware ADS-B
Wed 05:43:13 AM -33.5170 153.8170 66° East 558 642 34,600 1,342 Climbing FlightAware ADS-B
Wed 05:43:48 AM -33.4810 153.9180 67° East 555 639 35,400 1,185 Climbing FlightAware ADS-B
Wed 05:44:34 AM -33.4330 154.0510 67° East 554 638 36,200 1,024 Climbing FlightAware ADS-B
Wed 05:45:10 AM -33.3980 154.1490 67° East 552 635 36,800 640 Climbing FlightAware ADS-B
Wed 05:45:49 AM -33.3640 154.2410 66° East 552 635 37,000 169 Climbing FlightAware ADS-B
Wed 05:46:21 AM -33.3270 154.3440 67° East 552 635 37,000  Level FlightAware ADS-B
Wed 05:46:55 AM -33.2900 154.4460 67° East 552 635 37,000  Level FlightAware ADS-B
Wed 05:47:41 AM -33.2400 154.5620 63° Northeast 562 647 37,000  Level FlightAware ADS-B
Wed 05:47:59 AM -33.2030 154.6040 44° Northeast 568 654 37,000  Level FlightAware ADS-B
Wed 05:48:21 AM -33.1510 154.6410 31° Northeast 568 654 37,000  Level FlightAware ADS-B
Wed 05:48:52 AM -33.0830 154.6850 28° Northeast 568 654 37,000  Level FlightAware ADS-B
Wed 05:49:21 AM -33.0200 154.7430 38° Northeast 566 651 37,000  Level FlightAware ADS-B
Wed 05:50:11 AM -32.9350 154.8280 40° Northeast 566 651 37,000  Level FlightAware ADS-B
Wed 05:50:49 AM -32.8480 154.9150 40° Northeast 565 650 37,000  Level FlightAware ADS-B
Wed 05:51:20 AM -32.7870 154.9760 40° Northeast 566 651 37,000 92 Level FlightAware ADS-B
Wed 05:51:54 AM -32.7069 155.0544 40° Northeast 553 636 37,100  Climbing Aus ATC (RADAR)
Wed 05:51:59 AM -32.7050 155.0560 40° Northeast 566 651 37,000 -171 Descending FlightAware ADS-B
Wed 05:52:29 AM -32.6420 155.1180 40° Northeast 568 654 37,000  Level FlightAware ADS-B
Wed 05:53:04 AM -32.5740 155.1840 39° Northeast 568 654 37,000  Level FlightAware ADS-B
Wed 05:53:41 AM -32.5060 155.2510 40° Northeast 568 654 37,000  Level FlightAware ADS-B
Wed 05:54:17 AM -32.4430 155.3110 39° Northeast 568 654 37,000  Level FlightAware ADS-B
Wed 05:54:53 AM -32.3810 155.3710 39° Northeast 568 654 37,000  Level FlightAware ADS-B
Wed 05:55:29 AM -32.3180 155.4300 38° Northeast 568 654 37,000  Level FlightAware ADS-B
Wed 05:56:03 AM -32.2150 155.5350 41° Northeast 37,000  Level FlightAware ADS-B
Wed 05:56:45 AM -32.1290 155.6180 39° Northeast 567 652 37,000  Level FlightAware ADS-B
Wed 05:57:18 AM -32.0750 155.6690 39° Northeast 567 652 37,000  Level FlightAware ADS-B
Wed 05:58:02 AM -31.9900 155.7510 39° Northeast 567 652 37,000 130 Level FlightAware ADS-B
Wed 05:58:04 AM -31.9579 155.7822 39° Northeast 550 633 37,100  Climbing Aus ATC (RADAR)
Wed 05:58:38 AM -31.9280 155.8110 39° Northeast 567 652 37,000 -86 Descending FlightAware ADS-B
Wed 05:59:14 AM -31.8650 155.8700 39° Northeast 567 652 37,000  Level FlightAware ADS-B
Wed 05:59:51 AM -31.8010 155.9310 39° Northeast 567 652 37,000  Level FlightAware ADS-B
Wed 06:00:27 AM -31.7390 155.9910 39° Northeast 567 652 37,000  Level FlightAware ADS-B
Wed 06:01:04 AM -31.6750 156.0520 39° Northeast 567 652 37,000 150 Level FlightAware ADS-B
Wed 06:01:07 AM -31.5854 156.1389 39° Northeast 565 650 37,100 182 Climbing Aus ATC (RADAR)
Wed 06:01:37 AM -31.5246 156.1968 39° Northeast 564 649 37,100 -182 Level Aus ATC (RADAR)
Wed 06:01:40 AM -31.6120 156.1110 39° Northeast 567 652 37,000 -150 Descending FlightAware ADS-B
Wed 06:02:17 AM -31.5480 156.1720 39° Northeast 567 652 37,000 179 Level FlightAware ADS-B
Wed 06:02:47 AM -31.3831 156.3310 39° Northeast 563 648 37,200  Climbing Aus ATC (RADAR)
Wed 06:02:52 AM -31.4880 156.2300 39° Northeast 567 652 37,000  Descending FlightAware ADS-B
Wed 06:03:22 AM -31.3123 156.3978 39° Northeast 562 647 37,200  Climbing Aus ATC (RADAR)
Wed 06:03:28 AM -31.4250 156.2890 39° Northeast 567 652 37,000 -279 Descending FlightAware ADS-B
Wed 06:04:05 AM -31.3610 156.3500 39° Northeast 567 652 37,000  Level FlightAware ADS-B
Wed 06:04:41 AM -31.2990 156.4090 39° Northeast 567 652 37,000  Level FlightAware ADS-B
Wed 06:05:19 AM -31.2330 156.4710 39° Northeast 567 652 37,000  Level FlightAware ADS-B
Wed 06:05:55 AM -31.1700 156.5300 39° Northeast 567 652 37,000  Level FlightAware ADS-B
Wed 06:06:31 AM -31.1080 156.5890 39° Northeast 567 652 37,000  Level FlightAware ADS-B
Wed 06:07:07 AM -31.0460 156.6480 39° Northeast 567 652 37,000 171 Level FlightAware ADS-B
Wed 06:07:41 AM -30.7872 156.8902 39° Northeast 560 644 37,200 203 Climbing Aus ATC (RADAR)
Wed 06:08:06 AM -30.7365 156.9375 39° Northeast 561 646 37,200  Level Aus ATC (RADAR)
Wed 06:09:16 AM -30.5940 157.0693 39° Northeast 562 647 37,200  Level Aus ATC (RADAR)
Wed 06:09:41 AM -30.5433 157.1168 39° Northeast 563 648 37,200  Level Aus ATC (RADAR)
Wed 06:10:06 AM -30.4926 157.1641 39° Northeast 563 648 37,200  Level Aus ATC (RADAR)
Wed 06:10:41 AM -30.4225 157.2294 39° Northeast 558 642 37,200  Level Aus ATC (RADAR)
Wed 06:11:26 AM -30.3336 157.3119 39° Northeast 551 634 37,200  Level Aus ATC (RADAR)
Wed 06:12:01 AM -30.2630 157.3769 39° Northeast 553 636 37,200  Level Aus ATC (RADAR)
Wed 06:12:36 AM -30.1912 157.4431 39° Northeast 558 642 37,200  Level Aus ATC (RADAR)
Wed 06:13:06 AM -30.1293 157.4999 38° Northeast 561 646 37,200  Level Aus ATC (RADAR)
Wed 06:14:06 AM -30.0055 157.6129 38° Northeast 565 650 37,200  Level Aus ATC (RADAR)
Wed 06:14:31 AM -29.9548 157.6595 39° Northeast 564 649 37,200  Level Aus ATC (RADAR)
Wed 06:14:56 AM -29.9045 157.7058 39° Northeast 562 647 37,200  Level Aus ATC (RADAR)
Wed 06:15:26 AM -29.8432 157.7618 38° Northeast 561 646 37,200  Level Aus ATC (RADAR)
Wed 06:16:11 AM -29.7498 157.8458 38° Northeast 564 649 37,200  Level Aus ATC (RADAR)
Wed 06:16:51 AM -29.6668 157.9203 38° Northeast 566 651 37,200  Level Aus ATC (RADAR)
Wed 06:17:30 AM -29.5827 157.9955 38° Northeast 569 655 37,200  Level Aus ATC (RADAR)
Wed 06:17:40 AM -29.5621 158.0135 37° Northeast 569 655 37,200 -3 Level Aus ATC (RADAR)
Wed 06:23:00 AM -28.8761 158.6268 46° Northeast 37,000 -3 Descending Aus ATC (Calculated)
Wed 06:24:00 AM -28.7749 158.7256 41° Northeast  Level Estimated
Wed 06:25:00 AM -28.6737 158.8243 41° Northeast  Level Estimated
Wed 06:26:00 AM -28.5724 158.9227 40° Northeast  Level Estimated
Wed 06:27:00 AM -28.4710 159.0210 40° Northeast  Level Estimated
Wed 06:28:00 AM -28.3695 159.1190 40° Northeast  Level Estimated
Wed 06:28:00 AM -28.3367 159.2603 46° Northeast 37,000  Level Aus ATC (Calculated)
Wed 06:28:20 AM -28.2851 159.3205 46° Northeast 37,000  Level Aus ATC (Calculated)
Wed 06:30:00 AM -28.1158 159.4809 40° Northeast  Level Estimated
Wed 06:31:00 AM -28.0141 159.5770 40° Northeast  Level Estimated
Wed 06:32:00 AM -27.9124 159.6728 40° Northeast  Level Estimated
Wed 06:33:00 AM -27.8106 159.7685 40° Northeast  Level Estimated
Wed 06:33:14 AM -27.7751 159.9096 46° Northeast 37,000  Level Aus ATC (Calculated)
Wed 06:35:00 AM -27.5941 160.0767 39° Northeast  Level Estimated
Wed 06:36:00 AM -27.4916 160.1711 39° Northeast  Level Estimated
Wed 06:36:14 AM -27.4728 160.2549 46° Northeast 37,000  Level Aus ATC (Calculated)
Wed 06:38:00 AM -27.2897 160.4213 39° Northeast  Level Estimated
Wed 06:39:00 AM -27.1860 160.5152 39° Northeast  Level Estimated
Wed 06:39:32 AM -27.1339 160.6386 46° Northeast 37,000  Level Aus ATC (Calculated)
Wed 06:41:00 AM -26.9820 160.7742 39° Northeast  Level Estimated
Wed 06:41:32 AM -26.9337 160.8637 46° Northeast 37,000  Level Aus ATC (Calculated)
Wed 06:42:00 AM -26.8783 160.8665 38° Northeast  Level Estimated
Wed 06:43:00 AM -26.7812 160.9983 38° Northeast  Level Estimated
Wed 06:43:00 AM -26.7519 161.0670 46° Northeast 37,000  Level Aus ATC (Calculated)
Wed 06:43:32 AM -26.6969 161.1283 46° Northeast 37,000  Level Aus ATC (Calculated)
Wed 06:45:00 AM -26.5438 161.2616 38° Northeast  Level Estimated
Wed 06:45:00 AM -26.5370 161.3060 45° Northeast 37,000  Level Aus ATC (Calculated)
Wed 06:46:00 AM -26.4323 161.3965 38° Northeast  Level Estimated
Wed 06:47:00 AM -26.3275 161.4867 38° Northeast  Level Estimated
Wed 06:48:00 AM -26.2226 161.5768 38° Northeast  Level Estimated
Wed 06:49:00 AM -26.1177 161.6667 38° Northeast  Level Estimated
Wed 06:50:00 AM -26.0128 161.7565 38° Northeast  Level Estimated
Wed 06:51:00 AM -25.9077 161.8461 38° Northeast  Level Estimated
Wed 06:52:00 AM -25.8027 161.9355 37° Northeast  Level Estimated
Wed 06:53:00 AM -25.6975 162.0248 37° Northeast  Level Estimated
Wed 06:54:00 AM -25.5924 162.1139 37° Northeast  Level Estimated
Wed 06:55:00 AM -25.4871 162.2029 37° Northeast  Level Estimated
Wed 06:55:00 AM -25.4198 162.5280 45° Northeast 37,000  Level Aus ATC (Calculated)
Wed 06:56:00 AM -25.3127 162.6141 36° Northeast  Level Estimated
Wed 06:57:00 AM -25.2056 162.7000 36° Northeast  Level Estimated
Wed 06:58:00 AM -25.0984 162.7858 36° Northeast  Level Estimated
Wed 06:59:00 AM -24.9912 162.8714 36° Northeast  Level Estimated
Wed 07:00:00 AM -24.8839 162.9569 36° Northeast  Level Estimated
Wed 07:01:00 AM -24.7766 163.0423 36° Northeast  Level Estimated
Wed 07:02:00 AM -24.6692 163.1275 36° Northeast  Level Estimated
Wed 07:03:00 AM -24.5618 163.2125 36° Northeast  Level Estimated
Wed 07:04:00 AM -24.4543 163.2974 36° Northeast  Level Estimated
Wed 07:05:00 AM -24.3468 163.3822 36° Northeast  Level Estimated
Wed 07:06:00 AM -24.2392 163.4668 36° Northeast  Level Estimated
Wed 07:07:00 AM -24.1316 163.5512 36° Northeast  Level Estimated
Wed 07:08:00 AM -24.0239 163.6356 36° Northeast  Level Estimated
Wed 07:09:00 AM -23.9162 163.7197 36° Northeast  Level Estimated
Wed 07:10:00 AM -23.8085 163.8038 36° Northeast  Level Estimated
Wed 07:11:00 AM -23.7007 163.8877 35° Northeast  Level Estimated
Wed 07:12:00 AM -23.5928 163.9715 35° Northeast  Level Estimated
Wed 07:13:00 AM -23.4849 164.0551 35° Northeast  Level Estimated
Wed 07:14:00 AM -23.3770 164.1386 35° Northeast  Level Estimated
Wed 07:15:00 AM -23.2690 164.2219 35° Northeast  Level Estimated
Wed 07:16:00 AM -23.1610 164.3051 35° Northeast  Level Estimated
Wed 07:17:00 AM -23.0529 164.3882 35° Northeast  Level Estimated
Wed 07:17:18 AM -23.2950 164.8460 35° Northeast 496 571 37,000  Level FlightAware ADS-B
Wed 07:17:54 AM -23.2360 164.9100 45° Northeast 494 568 37,000  Level FlightAware ADS-B
Wed 07:18:00 AM -22.9448 164.4712 35° Northeast  Level Estimated
Wed 07:18:26 AM -23.1850 164.9640 44° Northeast 494 568 37,000  Level FlightAware ADS-B
Wed 07:19:00 AM -23.1290 165.0240 45° Northeast 497 572 37,000  Level FlightAware ADS-B
Wed 07:19:40 AM -23.0730 165.0830 44° Northeast 497 572 37,000  Level FlightAware ADS-B
Wed 07:20:12 AM -23.0150 165.1460 45° Northeast 494 568 37,000  Level FlightAware ADS-B
Wed 07:20:48 AM -22.9530 165.2120 44° Northeast 494 568 37,000  Level FlightAware ADS-B
Wed 07:21:21 AM -22.8970 165.2710 44° Northeast 494 568 37,000  Level FlightAware ADS-B
Wed 07:21:57 AM -22.8400 165.3330 45° Northeast 496 571 37,000  Level FlightAware ADS-B
Wed 07:22:34 AM -22.7790 165.3970 44° Northeast 497 572 37,000  Level FlightAware ADS-B
Wed 07:23:06 AM -22.7250 165.4540 44° Northeast 497 572 37,000  Level FlightAware ADS-B
Wed 07:23:42 AM -22.6660 165.5170 45° Northeast 497 572 37,000  Level FlightAware ADS-B
Wed 07:24:18 AM -22.6070 165.5790 44° Northeast 497 572 37,000  Level FlightAware ADS-B
Wed 07:24:52 AM -22.5520 165.6380 45° Northeast 497 572 37,000  Level FlightAware ADS-B
Wed 07:25:28 AM -22.4910 165.7020 44° Northeast 496 571 37,000  Level FlightAware ADS-B
Wed 07:26:03 AM -22.4360 165.7600 44° Northeast 490 564 37,000  Level FlightAware ADS-B
Wed 07:26:38 AM -22.3790 165.8200 44° Northeast 487 560 37,000  Level FlightAware ADS-B
Wed 07:27:08 AM -22.3310 165.8710 45° Northeast 487 560 37,000  Level FlightAware ADS-B
Wed 07:27:46 AM -22.2680 165.9360 44° Northeast 486 559 37,000  Level FlightAware ADS-B
Wed 07:28:22 AM -22.2110 165.9960 44° Northeast 486 559 37,000  Level FlightAware ADS-B
Wed 07:28:56 AM -22.1560 166.0540 44° Northeast 487 560 37,000  Level FlightAware ADS-B
Wed 07:29:31 AM -22.0990 166.1140 44° Northeast 487 560 37,000  Level FlightAware ADS-B
Wed 07:30:08 AM -22.0400 166.1750 44° Northeast 486 559 37,000  Level FlightAware ADS-B
Wed 07:30:35 AM -21.9920 166.2140 37° Northeast 463 533 37,000  Level FlightAware ADS-B
Wed 07:31:12 AM -21.9240 166.2510 27° Northeast 447 514 37,000  Level FlightAware ADS-B
Wed 07:31:44 AM -21.8630 166.2800 24° Northeast 448 516 37,000  Level FlightAware ADS-B
Wed 07:32:19 AM -21.7950 166.3120 24° Northeast 451 519 37,000  Level FlightAware ADS-B
Wed 07:32:55 AM -21.7260 166.3450 24° Northeast 453 521 37,000  Level FlightAware ADS-B
Wed 07:33:32 AM -21.6560 166.3790 24° Northeast 454 522 37,000  Level FlightAware ADS-B
Wed 07:34:04 AM -21.5940 166.4090 24° Northeast 452 520 37,000  Level FlightAware ADS-B
Wed 07:34:39 AM -21.5270 166.4410 24° Northeast 453 521 37,000  Level FlightAware ADS-B
Wed 07:35:16 AM -21.4560 166.4740 23° Northeast 452 520 37,000  Level FlightAware ADS-B
Wed 07:35:47 AM -21.3960 166.5030 24° Northeast 452 520 37,000  Level FlightAware ADS-B
Wed 07:36:25 AM -21.3250 166.5370 24° Northeast 452 520 37,000  Level FlightAware ADS-B
Wed 07:37:01 AM -21.2560 166.5700 24° Northeast 451 519 37,000  Level FlightAware ADS-B
Wed 07:37:36 AM -21.1900 166.6010 24° Northeast 451 519 37,000  Level FlightAware ADS-B
Wed 07:38:09 AM -21.1320 166.6290 24° Northeast 450 518 37,000  Level FlightAware ADS-B
Wed 07:38:46 AM -21.0540 166.6660 24° Northeast 449 517 37,000  Level FlightAware ADS-B
Wed 07:39:18 AM -20.9930 166.6940 23° Northeast 449 517 37,000  Level FlightAware ADS-B
Wed 07:39:50 AM -20.9340 166.7220 24° Northeast 450 518 37,000  Level FlightAware ADS-B
Wed 07:40:23 AM -20.8680 166.7530 24° Northeast 451 519 37,000  Level FlightAware ADS-B
Wed 07:40:59 AM -20.7990 166.7860 24° Northeast 452 520 37,000  Level FlightAware ADS-B
Wed 07:41:33 AM -20.7340 166.8170 24° Northeast 453 521 37,000  Level FlightAware ADS-B
Wed 07:42:08 AM -20.6730 166.8450 23° Northeast 452 520 37,000  Level FlightAware ADS-B
Wed 07:42:45 AM -20.5980 166.8810 24° Northeast 453 521 37,000  Level FlightAware ADS-B
Wed 07:43:15 AM -20.5390 166.9090 24° Northeast 452 520 37,000  Level FlightAware ADS-B
Wed 07:44:07 AM -20.4500 166.9500 23° Northeast 450 518 37,000  Level FlightAware ADS-B
Wed 07:44:43 AM -20.3910 166.9760 22° Northeast 450 518 37,000  Level FlightAware ADS-B
Wed 07:45:19 AM -20.3320 167.0030 23° Northeast 450 518 37,000  Level FlightAware ADS-B
Wed 07:45:57 AM -20.2700 167.0310 23° Northeast 450 518 37,000  Level FlightAware ADS-B
Wed 07:46:34 AM -20.2100 167.0580 23° Northeast 450 518 37,000  Level FlightAware ADS-B
Wed 07:47:10 AM -20.1510 167.0850 23° Northeast 450 518 37,000  Level FlightAware ADS-B
Wed 07:47:48 AM -20.0900 167.1130 23° Northeast 450 518 37,000  Level FlightAware ADS-B
Wed 07:48:24 AM -20.0310 167.1390 22° Northeast 450 518 37,000  Level FlightAware ADS-B
Wed 07:49:00 AM -19.9720 167.1660 23° Northeast 450 518 37,000  Level FlightAware ADS-B
Wed 07:49:36 AM -19.9140 167.1920 23° Northeast 450 518 37,000  Level FlightAware ADS-B
Wed 07:50:14 AM -19.8520 167.2200 23° Northeast 450 518 37,000  Level FlightAware ADS-B
Wed 07:50:50 AM -19.7930 167.2470 23° Northeast 450 518 37,000  Level FlightAware ADS-B
Wed 07:51:26 AM -19.7340 167.2730 23° Northeast 450 518 37,000  Level FlightAware ADS-B
Wed 07:52:02 AM -19.6760 167.2990 23° Northeast 450 518 37,000  Level FlightAware ADS-B
Wed 07:52:38 AM -19.6170 167.3260 23° Northeast 450 518 37,000  Level FlightAware ADS-B
Wed 07:53:15 AM -19.5570 167.3530 23° Northeast 450 518 37,000  Level FlightAware ADS-B
Wed 07:55:00 AM -19.3497 167.4635 24° Northeast  Level FlightAware Approximate
Wed 07:56:00 AM -19.2285 167.5199 24° Northeast  Level FlightAware Approximate
Wed 07:57:00 AM -19.1074 167.5763 24° Northeast  Level FlightAware Approximate
Wed 07:58:00 AM -18.9862 167.6326 24° Northeast  Level FlightAware Approximate
Wed 07:59:00 AM -18.8650 167.6888 24° Northeast  Level FlightAware Approximate
Wed 08:00:00 AM -18.7437 167.7449 24° Northeast  Level FlightAware Approximate
Wed 08:01:00 AM -18.6225 167.8009 24° Northeast  Level FlightAware Approximate
Wed 08:02:00 AM -18.5013 167.8569 24° Northeast  Level FlightAware Approximate
Wed 08:03:00 AM -18.3801 167.9131 24° Northeast  Level FlightAware Approximate
Wed 08:04:00 AM -18.2589 167.9691 24° Northeast  Level FlightAware Approximate
Wed 08:05:00 AM -18.1377 168.0251 24° Northeast  Level FlightAware Approximate
Wed 08:06:00 AM -18.0165 168.0810 24° Northeast  Level FlightAware Approximate
Wed 08:07:00 AM -17.8953 168.1368 24° Northeast  Level FlightAware Approximate
Wed 08:08:00 AM -17.7740 168.1926 24° Northeast  Level FlightAware Approximate
Wed 08:09:00 AM -17.6621 168.2439 24° Northeast  Level FlightAware Approximate
Wed 08:10:00 AM -17.6993 168.3198 24° Northeast  Level Estimated
Wed 08:11:00 AM -17.6993 168.3198 24° Northeast  Level Estimated
Wed 08:12:00 AM -17.6993 168.3198 24° Northeast  Level Estimated
Wed 08:13:00 AM -17.6993 168.3198 24° Northeast  Level Estimated
Wed 08:14:00 AM -17.6993 168.3198 24° Northeast  Level Estimated
Wed 08:15:00 AM -17.6993 168.3198 24° Northeast  Level Estimated
Wed 08:16:00 AM -17.6993 168.3198 24° Northeast  Level Estimated
Wed 08:17:00 AM -17.6993 168.3198 24° Northeast  Level Estimated
Wed 08:18:00 AM -17.6993 168.3198 24° Northeast  Level Estimated
Wed 08:19:00 AM -17.6993 168.3198 24° Northeast  Level Estimated
Wed 08:20:00 AM -17.6993 168.3198 24° Northeast  Level Estimated
Wed 08:21:00 AM -17.6993 168.3198 24° Northeast  Level Estimated
Wed 08:22:00 AM -17.6993 168.3198 24° Northeast  Level Estimated
Wed 08:23:00 AM -17.6993 168.3198 24° Northeast  Level Estimated
Wed 08:24:00 AM -17.6993 168.3198 24° Northeast  Level Estimated
Wed 08:25:00 AM -17.6993 168.3198 24° Northeast  Level Estimated
Wed 08:26:00 AM -17.6993 168.3198 24° Northeast  Level Estimated
Wed 08:27:00 AM -17.6993 168.3198 24° Northeast  Level Estimated

Login

Don't have an account? Register now (free) for customized features, flight alerts, and more!